Time;durP1;ratioP1;P1;durP2;ratioP2;P2;SDS_P1;SDS_P2;PMS_P1;PMS_P2;Temp;Humidity;BMP_temperature;BMP_pressure;BME280_temperature;BME280_humidity;BME280_pressure;Samples;Min_cycle;Max_cycle;Signal;HPM_P1;HPM_P2
2023/02/09 00:02:07;;;;;;;63.27;28.67;;;0.70;99.90;;;;;;5087067;28;20509;-71
2023/02/09 00:04:33;;;;;;;53.47;26.55;;;0.70;99.90;;;;;;5087136;28;20032;-71
2023/02/09 00:07:00;;;;;;;64.57;27.85;;;0.60;99.90;;;;;;5070441;28;20082;-71
2023/02/09 00:09:26;;;;;;;58.22;28.83;;;0.60;99.90;;;;;;5067200;28;20039;-71
2023/02/09 00:14:35;;;;;;;63.20;27.60;;;0.60;99.90;;;;;;5067167;28;20055;-71
2023/02/09 00:17:02;;;;;;;61.10;28.42;;;0.50;99.90;;;;;;5066616;28;20033;-71
2023/02/09 00:19:28;;;;;;;59.08;27.20;;;0.50;99.90;;;;;;5066623;28;20032;-71
2023/02/09 00:21:54;;;;;;;58.97;25.80;;;0.50;99.90;;;;;;5069270;28;20400;-72
2023/02/09 00:24:19;;;;;;;58.78;26.05;;;0.50;99.90;;;;;;5087104;28;20036;-71
2023/02/09 00:26:45;;;;;;;60.28;26.23;;;0.50;99.90;;;;;;5086816;28;20381;-71
2023/02/09 00:29:12;;;;;;;55.88;25.77;;;0.50;99.90;;;;;;5086741;28;20078;-71
2023/02/09 00:31:38;;;;;;;68.88;27.05;;;0.50;99.90;;;;;;5086961;28;20017;-71
2023/02/09 00:34:04;;;;;;;54.50;25.13;;;0.40;99.90;;;;;;5086851;28;20040;-71
2023/02/09 00:36:29;;;;;;;53.17;26.15;;;0.40;99.90;;;;;;5071749;28;20403;-71
2023/02/09 00:38:55;;;;;;;53.33;24.67;;;0.40;99.90;;;;;;5066772;28;20032;-71
2023/02/09 00:42:04;;;;;;;59.88;24.73;;;0.40;99.90;;;;;;5066325;28;20086;-71
2023/02/09 00:44:07;;;;;;;56.28;25.30;;;0.40;99.90;;;;;;5066256;28;20033;-70
2023/02/09 00:46:32;;;;;;;62.15;27.65;;;0.40;99.90;;;;;;5079381;28;20085;-70
2023/02/09 00:48:58;;;;;;;54.45;26.52;;;0.30;99.90;;;;;;5086523;28;20074;-71
2023/02/09 00:51:23;;;;;;;61.90;26.90;;;0.30;99.90;;;;;;5087037;28;20385;-71
2023/02/09 00:53:49;;;;;;;58.10;26.13;;;0.20;99.90;;;;;;5087498;28;20044;-71
2023/02/09 00:56:15;;;;;;;58.90;26.03;;;0.20;99.90;;;;;;5090786;28;20258;-70
2023/02/09 00:58:40;;;;;;;48.37;24.87;;;0.20;99.90;;;;;;5090606;28;20060;-71
2023/02/09 01:01:09;;;;;;;52.90;25.48;;;0.20;99.90;;;;;;5090643;28;20031;-70
2023/02/09 01:03:35;;;;;;;59.60;24.88;;;0.10;99.90;;;;;;5090363;28;20032;-71
2023/02/09 01:06:00;;;;;;;61.97;26.23;;;0.10;99.90;;;;;;5077959;28;20059;-71
2023/02/09 01:08:26;;;;;;;58.97;26.43;;;0.00;99.90;;;;;;5073490;28;21139;-70
2023/02/09 01:10:51;;;;;;;52.42;23.58;;;0.00;99.90;;;;;;5069565;28;20089;-70
2023/02/09 01:13:17;;;;;;;55.17;26.60;;;0.00;99.90;;;;;;5070117;28;20416;-70
2023/02/09 01:15:43;;;;;;;60.00;27.27;;;-0.10;99.90;;;;;;5069934;28;20056;-70
2023/02/09 01:18:08;;;;;;;60.93;26.53;;;-0.10;99.90;;;;;;5069627;28;20270;-70
2023/02/09 01:20:34;;;;;;;56.40;25.70;;;-0.10;99.90;;;;;;5069613;28;20259;-71
2023/02/09 01:23:00;;;;;;;50.60;26.05;;;-0.20;99.90;;;;;;5069812;28;20278;-71
2023/02/09 01:25:25;;;;;;;54.33;25.98;;;-0.20;99.90;;;;;;5069500;28;20036;-71
2023/02/09 01:27:51;;;;;;;54.00;25.73;;;-0.20;99.90;;;;;;5069820;28;20063;-70
2023/02/09 01:30:16;;;;;;;58.13;25.43;;;-0.40;99.90;;;;;;5069579;28;20262;-71
2023/02/09 01:32:42;;;;;;;60.30;26.70;;;-0.40;99.90;;;;;;5069406;28;20412;-71
2023/02/09 01:35:08;;;;;;;54.90;26.25;;;-0.40;99.90;;;;;;5069534;28;20040;-71
2023/02/09 01:37:34;;;;;;;59.05;27.00;;;-0.40;99.90;;;;;;5069777;28;20025;-71
2023/02/09 01:40:00;;;;;;;58.75;27.90;;;-0.40;99.90;;;;;;5083515;28;20050;-71
2023/02/09 01:42:26;;;;;;;61.88;26.13;;;-0.40;99.90;;;;;;5089677;28;20051;-71
2023/02/09 01:45:13;;;;;;;62.80;27.35;;;-0.50;99.90;;;;;;5089198;28;20173;-71
2023/02/09 01:47:44;;;;;;;63.00;25.80;;;-0.60;99.90;;;;;;5089735;28;20107;-71
2023/02/09 01:50:11;;;;;;;64.97;28.83;;;-0.60;99.90;;;;;;5089436;28;20114;-71
2023/02/09 01:52:38;;;;;;;64.82;27.65;;;-0.60;99.90;;;;;;5089148;28;20142;-72
2023/02/09 01:55:08;;;;;;;65.85;27.25;;;-0.50;99.90;;;;;;5089211;28;20024;-71
2023/02/09 01:57:56;;;;;;;63.33;28.35;;;-0.40;99.90;;;;;;5088953;28;20551;-72
2023/02/09 02:00:22;;;;;;;58.10;25.90;;;-0.40;99.90;;;;;;5089074;28;20035;-71
2023/02/09 02:03:02;;;;;;;68.68;27.92;;;-0.40;99.90;;;;;;5088726;28;20511;-71
2023/02/09 02:05:29;;;;;;;55.33;27.48;;;-0.40;99.90;;;;;;5076418;28;20033;-72
2023/02/09 02:08:12;;;;;;;60.33;26.00;;;-0.50;99.90;;;;;;5069125;28;20020;-72
2023/02/09 02:10:38;;;;;;;59.55;26.45;;;-0.60;99.90;;;;;;5068904;28;20060;-71
2023/02/09 02:13:03;;;;;;;61.55;28.02;;;-0.70;99.90;;;;;;5068879;28;20463;-71
2023/02/09 02:15:57;;;;;;;59.67;27.63;;;-0.60;99.90;;;;;;5077045;28;20020;-71
2023/02/09 02:18:41;;;;;;;57.28;26.33;;;-0.50;99.90;;;;;;5050807;28;20289;-72
2023/02/09 02:21:36;;;;;;;53.72;25.15;;;-0.60;99.90;;;;;;5107208;28;20023;-71
2023/02/09 02:24:17;;;;;;;57.85;27.23;;;-0.60;99.90;;;;;;5099458;28;20865;-72
2023/02/09 02:27:01;;;;;;;61.08;27.45;;;-0.60;99.90;;;;;;5105800;28;20038;-71
2023/02/09 02:29:51;;;;;;;54.30;26.13;;;-0.60;99.90;;;;;;5107619;28;20114;-72
2023/02/09 02:32:39;;;;;;;59.78;27.10;;;-0.60;99.90;;;;;;5109088;28;20028;-72
2023/02/09 02:35:30;;;;;;;58.13;25.73;;;-0.50;99.90;;;;;;5094985;28;20399;-72
2023/02/09 02:38:11;;;;;;;54.33;25.77;;;-0.60;99.90;;;;;;5068040;28;20112;-73
2023/02/09 02:40:43;;;;;;;58.90;25.63;;;-0.50;99.90;;;;;;5080289;28;20512;-72
2023/02/09 02:43:34;;;;;;;52.03;24.73;;;-0.50;99.90;;;;;;5088349;28;20067;-72
2023/02/09 02:46:08;;;;;;;54.00;26.30;;;-0.40;99.90;;;;;;5085727;28;20755;-72
2023/02/09 02:48:36;;;;;;;51.20;24.95;;;-0.50;99.90;;;;;;5086121;28;20065;-72
2023/02/09 02:51:10;;;;;;;55.40;23.88;;;-0.40;99.90;;;;;;5086684;28;20085;-72
2023/02/09 02:53:40;;;;;;;59.92;26.08;;;-0.40;99.90;;;;;;5087356;28;20036;-73
2023/02/09 02:56:11;;;;;;;52.90;24.85;;;-0.40;99.90;;;;;;5086861;28;20480;-72
2023/02/09 02:58:39;;;;;;;55.22;25.40;;;-0.40;99.90;;;;;;5086922;28;20442;-71
2023/02/09 03:01:09;;;;;;;51.95;24.83;;;-0.50;99.90;;;;;;5086927;28;20147;-72
2023/02/09 03:03:36;;;;;;;54.03;23.83;;;-0.60;99.90;;;;;;5086226;28;20814;-72
2023/02/09 03:06:04;;;;;;;57.42;25.00;;;-0.50;99.90;;;;;;5086824;28;20016;-73
2023/02/09 03:08:29;;;;;;;54.03;23.85;;;-0.50;99.90;;;;;;5087174;28;20028;-72
2023/02/09 03:10:55;;;;;;;58.65;27.23;;;-0.50;99.90;;;;;;5087067;28;20028;-72
2023/02/09 03:13:47;;;;;;;50.72;23.17;;;-0.40;99.90;;;;;;5086068;28;20719;-72
2023/02/09 03:16:43;;;;;;;50.92;24.70;;;-0.40;99.90;;;;;;5086389;28;20094;-72
2023/02/09 03:19:40;;;;;;;50.90;24.40;;;-0.40;99.90;;;;;;5089098;28;20032;-72
2023/02/09 03:22:29;;;;;;;52.70;23.98;;;-0.50;99.90;;;;;;5086591;28;20038;-72
2023/02/09 03:25:14;;;;;;;57.83;25.13;;;-0.40;99.90;;;;;;5086788;28;20432;-72
2023/02/09 03:28:07;;;;;;;54.50;22.83;;;-0.40;99.90;;;;;;5085756;28;20127;-72
2023/02/09 03:30:34;;;;;;;55.60;24.63;;;-0.50;99.90;;;;;;5086604;28;20028;-71
2023/02/09 03:33:02;;;;;;;52.17;22.70;;;-0.50;99.90;;;;;;5086746;28;20028;-72
2023/02/09 03:35:36;;;;;;;50.13;24.25;;;-0.50;99.90;;;;;;5083335;28;20077;-72
2023/02/09 03:38:06;;;;;;;52.88;23.45;;;-0.60;99.90;;;;;;5087286;28;20492;-72
2023/02/09 03:40:33;;;;;;;51.08;23.27;;;-0.60;99.90;;;;;;5086777;28;20036;-72
2023/02/09 03:42:59;;;;;;;54.22;23.88;;;-0.60;99.90;;;;;;5086819;28;20103;-72
2023/02/09 03:45:25;;;;;;;57.50;26.23;;;-0.70;99.90;;;;;;5086256;28;20436;-72
2023/02/09 03:47:50;;;;;;;59.35;26.38;;;-0.70;99.90;;;;;;5086179;28;20036;-72
2023/02/09 03:50:16;;;;;;;52.17;23.45;;;-0.70;99.90;;;;;;5086668;28;20038;-72
2023/02/09 03:52:41;;;;;;;49.45;23.75;;;-0.70;99.90;;;;;;5086928;28;20111;-72
2023/02/09 03:55:07;;;;;;;48.57;23.37;;;-0.80;99.90;;;;;;5085721;28;20164;-71
2023/02/09 03:57:34;;;;;;;53.88;24.42;;;-0.90;99.90;;;;;;5086566;28;20024;-72
2023/02/09 04:00:00;;;;;;;51.60;23.83;;;-0.90;99.90;;;;;;5086184;28;20028;-72
2023/02/09 04:02:26;;;;;;;;;;;-0.90;99.90;;;;;;5086389;28;20404;-72
2023/02/09 04:04:52;;;;;;;52.80;22.85;;;-0.90;99.90;;;;;;5083372;28;19919;-72
2023/02/09 04:07:18;;;;;;;;;;;-1.00;99.90;;;;;;5086301;28;20028;-72
2023/02/09 04:09:43;;;;;;;49.38;23.15;;;-1.00;99.90;;;;;;5085821;28;19927;-72
2023/02/09 04:12:09;;;;;;;50.83;23.75;;;-1.10;99.90;;;;;;5085690;28;20043;-73
2023/02/09 04:14:34;;;;;;;48.70;23.53;;;-1.00;99.90;;;;;;5084626;28;20085;-72
2023/02/09 04:17:00;;;;;;;51.53;24.92;;;-1.10;99.90;;;;;;5085764;28;20662;-72
2023/02/09 04:19:26;;;;;;;55.60;24.70;;;-1.10;99.90;;;;;;5086095;28;20489;-72
2023/02/09 04:21:51;;;;;;;64.25;25.20;;;-1.10;99.90;;;;;;5085980;28;20059;-73
2023/02/09 04:24:18;;;;;;;58.15;24.40;;;-1.10;99.90;;;;;;5085209;28;20036;-72
2023/02/09 04:26:43;;;;;;;51.15;23.55;;;-1.20;99.90;;;;;;5085795;28;20025;-72
2023/02/09 04:29:09;;;;;;;57.67;24.92;;;-1.20;99.90;;;;;;5086708;28;20403;-72
2023/02/09 04:31:34;;;;;;;55.60;25.77;;;-1.20;99.90;;;;;;5089630;28;20020;-72
2023/02/09 04:34:00;;;;;;;48.97;23.83;;;-1.20;99.90;;;;;;5088879;28;20411;-72
2023/02/09 04:36:26;;;;;;;52.95;23.33;;;-1.20;99.90;;;;;;5089546;28;20523;-73
2023/02/09 04:38:51;;;;;;;48.83;23.42;;;-1.30;99.90;;;;;;5089541;28;20111;-71
2023/02/09 04:41:17;;;;;;;49.90;22.88;;;-1.20;99.90;;;;;;5089068;28;20042;-71
2023/02/09 04:43:44;;;;;;;60.47;24.83;;;-1.10;99.90;;;;;;5089831;28;20048;-71
2023/02/09 04:46:15;;;;;;;51.50;23.75;;;-1.10;99.90;;;;;;5088710;28;20028;-71
2023/02/09 04:48:40;;;;;;;56.50;23.77;;;-1.10;99.90;;;;;;5089611;28;20511;-71
2023/02/09 04:51:06;;;;;;;52.03;23.67;;;-1.00;99.90;;;;;;5089111;28;20031;-71
2023/02/09 04:53:32;;;;;;;60.85;24.35;;;-0.90;99.90;;;;;;5089933;28;20047;-71
2023/02/09 04:55:57;;;;;;;54.20;23.20;;;-0.80;99.90;;;;;;5088302;28;20051;-71
2023/02/09 05:01:10;;;;;;;49.80;23.42;;;-0.80;99.90;;;;;;5081881;28;20326;-71
2023/02/09 05:03:35;;;;;;;52.22;23.20;;;-0.70;99.90;;;;;;5090160;28;20518;-71
2023/02/09 05:06:03;;;;;;;49.55;22.77;;;-0.70;99.90;;;;;;5089803;28;20028;-71
2023/02/09 05:08:29;;;;;;;54.30;23.05;;;-0.60;99.90;;;;;;5089424;28;20032;-71
2023/02/09 05:10:55;;;;;;;60.78;24.33;;;-0.50;99.90;;;;;;5090351;28;20031;-71
2023/02/09 05:13:22;;;;;;;41.20;21.88;;;-0.60;99.90;;;;;;5088958;28;20047;-71
2023/02/09 05:15:48;;;;;;;44.45;21.58;;;-0.50;99.90;;;;;;5088576;28;20522;-71
2023/02/09 05:18:15;;;;;;;54.45;22.92;;;-0.50;99.90;;;;;;5088840;28;20050;-71
2023/02/09 05:20:42;;;;;;;50.15;22.65;;;-0.40;99.90;;;;;;5088926;28;20023;-71
2023/02/09 05:23:08;;;;;;;52.78;22.67;;;-0.40;99.90;;;;;;5092939;28;20039;-71
2023/02/09 05:25:34;;;;;;;48.53;24.55;;;-0.40;99.90;;;;;;5088628;28;20465;-71
2023/02/09 05:27:59;;;;;;;54.47;22.80;;;-0.40;99.90;;;;;;5088658;28;20028;-71
2023/02/09 05:30:25;;;;;;;47.65;20.95;;;-0.50;99.90;;;;;;5088951;28;20024;-71
2023/02/09 05:32:51;;;;;;;49.47;21.65;;;-0.50;99.90;;;;;;5088723;28;20130;-71
2023/02/09 05:35:17;;;;;;;48.33;23.73;;;-0.50;99.90;;;;;;5088241;28;20028;-71
2023/02/09 05:37:43;;;;;;;46.58;21.48;;;-0.50;99.90;;;;;;5088715;28;20071;-71
2023/02/09 05:40:09;;;;;;;53.93;23.40;;;-0.50;99.90;;;;;;5088044;28;20035;-71
2023/02/09 05:42:35;;;;;;;56.10;25.17;;;-0.60;99.90;;;;;;5088689;28;20028;-70
2023/02/09 05:45:00;;;;;;;57.57;24.60;;;-0.60;99.90;;;;;;5085847;28;20397;-72
2023/02/09 05:47:26;;;;;;;47.97;21.92;;;-0.60;99.90;;;;;;5075670;28;20036;-72
2023/02/09 05:49:52;;;;;;;50.00;23.48;;;-0.70;99.90;;;;;;5084947;28;20089;-71
2023/02/09 05:52:18;;;;;;;55.38;25.40;;;-0.70;99.90;;;;;;5087903;28;20036;-72
2023/02/09 05:54:46;;;;;;;61.33;23.42;;;-0.60;99.90;;;;;;5087680;28;20040;-72
2023/02/09 05:57:12;;;;;;;57.53;23.13;;;-0.60;99.90;;;;;;5086283;28;20757;-72
2023/02/09 05:59:38;;;;;;;56.28;26.38;;;-0.50;99.90;;;;;;5087617;28;20085;-72
2023/02/09 06:02:03;;;;;;;65.90;26.38;;;-0.50;99.90;;;;;;5083399;28;20040;-72
2023/02/09 06:04:29;;;;;;;70.78;26.83;;;-0.60;99.90;;;;;;5087932;28;20054;-72
2023/02/09 06:06:55;;;;;;;56.22;25.58;;;-0.60;99.90;;;;;;5088531;28;20039;-72
2023/02/09 06:09:21;;;;;;;56.63;27.63;;;-0.70;99.90;;;;;;5086969;28;20036;-71
2023/02/09 06:11:48;;;;;;;65.78;27.38;;;-0.70;99.90;;;;;;5087342;28;20032;-70
2023/02/09 06:14:14;;;;;;;60.15;25.83;;;-0.70;99.90;;;;;;5086873;28;20032;-71
2023/02/09 06:16:40;;;;;;;;;;;-0.80;99.90;;;;;;5087682;28;20066;-73
2023/02/09 06:19:10;;;;;;;62.55;26.38;;;-0.80;99.90;;;;;;5086650;28;19915;-72
2023/02/09 06:21:36;;;;;;;55.53;24.77;;;-0.80;99.90;;;;;;5088045;28;20523;-71
2023/02/09 06:24:01;;;;;;;75.05;28.85;;;-0.80;99.90;;;;;;5087775;28;20028;-71
2023/02/09 06:26:27;;;;;;;71.70;31.23;;;-0.70;99.90;;;;;;5085867;28;20036;-72
2023/02/09 06:28:53;;;;;;;72.60;28.70;;;-0.60;99.90;;;;;;5087447;28;20522;-72
2023/02/09 06:31:18;;;;;;;74.35;31.15;;;-0.70;99.90;;;;;;5084970;28;20028;-72
2023/02/09 06:33:44;;;;;;;68.05;31.17;;;-0.60;99.90;;;;;;5085798;28;20124;-71
2023/02/09 06:36:10;;;;;;;64.55;29.17;;;-0.70;99.90;;;;;;5079606;28;20161;-72
2023/02/09 06:38:37;;;;;;;76.25;30.35;;;-0.80;99.90;;;;;;5088200;28;20099;-73
2023/02/09 06:41:04;;;;;;;65.72;28.42;;;-0.80;99.90;;;;;;5083359;28;20020;-72
2023/02/09 06:43:29;;;;;;;77.43;29.17;;;-0.90;99.90;;;;;;5086621;28;20074;-71
2023/02/09 06:45:55;;;;;;;62.72;29.85;;;-0.90;99.90;;;;;;5088053;28;20547;-69
2023/02/09 06:48:20;;;;;;;68.57;30.40;;;-1.00;99.90;;;;;;5080923;28;20031;-68
2023/02/09 06:50:46;;;;;;;63.83;29.07;;;-1.00;99.90;;;;;;5082226;28;20032;-69
2023/02/09 06:53:12;;;;;;;73.05;31.73;;;-1.00;99.90;;;;;;5085232;28;20321;-69
2023/02/09 06:55:38;;;;;;;71.28;30.30;;;-1.00;99.90;;;;;;5078598;28;20039;-70
2023/02/09 06:58:04;;;;;;;68.88;30.17;;;-1.00;99.90;;;;;;5080807;28;20595;-70
2023/02/09 07:00:30;;;;;;;80.78;31.90;;;-1.00;99.90;;;;;;5078104;28;20169;-70
2023/02/09 07:02:58;;;;;;;;;;;-1.00;99.90;;;;;;5078082;28;20024;-70
2023/02/09 07:05:23;;;;;;;70.25;30.33;;;-0.90;99.90;;;;;;5080816;28;20269;-70
2023/02/09 07:07:49;;;;;;;75.38;32.42;;;-0.90;99.90;;;;;;5083724;28;20039;-70
2023/02/09 07:10:16;;;;;;;73.53;32.78;;;-1.00;99.90;;;;;;5082819;28;20119;-72
2023/02/09 07:12:44;;;;;;;74.50;31.38;;;-0.90;99.90;;;;;;5084645;28;20043;-72
2023/02/09 07:15:12;;;;;;;74.28;32.08;;;-0.90;99.90;;;;;;5084380;28;20347;-70
2023/02/09 07:17:38;;;;;;;84.03;31.63;;;-0.80;99.90;;;;;;5086623;28;20035;-73
2023/02/09 07:20:04;;;;;;;;;;;-0.90;99.90;;;;;;5083911;28;20043;-69
2023/02/09 07:22:30;;;;;;;80.88;30.70;;;-1.00;99.90;;;;;;5081890;28;19917;-71
2023/02/09 07:24:56;;;;;;;72.57;31.85;;;-0.90;99.90;;;;;;5082080;28;20028;-71
2023/02/09 07:27:21;;;;;;;76.35;34.85;;;-0.80;99.90;;;;;;5083469;28;20064;-69
2023/02/09 07:29:47;;;;;;;87.00;36.20;;;-0.70;99.90;;;;;;5084187;28;20028;-71
2023/02/09 07:32:13;;;;;;;85.38;31.40;;;-0.70;99.90;;;;;;5083250;28;20028;-71
2023/02/09 07:34:38;;;;;;;79.70;36.65;;;-0.50;99.90;;;;;;5080695;28;20040;-69
2023/02/09 07:37:04;;;;;;;82.22;34.75;;;-0.50;99.90;;;;;;5069726;28;20029;-69
2023/02/09 07:39:30;;;;;;;92.88;36.78;;;-0.30;99.90;;;;;;5086320;28;20039;-70
2023/02/09 07:41:56;;;;;;;82.80;35.53;;;-0.20;99.90;;;;;;5079723;28;20027;-71
2023/02/09 07:44:23;;;;;;;76.47;34.97;;;-0.10;99.90;;;;;;5082432;28;20028;-71
2023/02/09 07:46:49;;;;;;;92.07;33.35;;;-0.10;99.90;;;;;;5086055;28;20039;-71
2023/02/09 07:49:14;;;;;;;83.67;35.03;;;0.00;99.90;;;;;;5086246;28;20024;-72
2023/02/09 07:51:40;;;;;;;93.57;36.77;;;0.10;99.90;;;;;;5085895;28;20293;-72
2023/02/09 07:54:07;;;;;;;85.87;34.23;;;0.20;99.90;;;;;;5084807;28;20336;-72
2023/02/09 07:56:33;;;;;;;76.03;33.17;;;0.30;99.90;;;;;;5086424;28;20032;-71
2023/02/09 07:58:59;;;;;;;77.00;35.50;;;0.50;99.90;;;;;;5084942;28;20349;-71
2023/02/09 08:01:25;;;;;;;80.55;31.80;;;0.60;99.90;;;;;;5080109;28;20059;-71
2023/02/09 08:03:50;;;;;;;69.90;33.45;;;0.70;99.90;;;;;;5082380;28;20040;-72
2023/02/09 08:06:30;;;;;;;77.97;33.05;;;0.70;99.90;;;;;;5090091;28;20032;-72
2023/02/09 08:08:56;;;;;;;75.90;33.47;;;0.80;99.90;;;;;;5089786;28;20039;-70
2023/02/09 08:11:42;;;;;;;79.88;33.00;;;0.90;99.90;;;;;;5089165;28;20028;-69
2023/02/09 08:14:15;;;;;;;72.45;33.33;;;0.90;99.90;;;;;;5089814;28;20043;-70
2023/02/09 08:16:41;;;;;;;69.30;32.97;;;1.00;99.90;;;;;;5088232;28;20027;-69
2023/02/09 08:19:15;;;;;;;83.43;33.67;;;1.10;99.90;;;;;;5082430;28;20048;-69
2023/02/09 08:21:44;;;;;;;74.60;33.03;;;1.20;99.90;;;;;;5088305;28;20039;-70
2023/02/09 08:24:11;;;;;;;76.57;32.40;;;1.30;99.90;;;;;;5089730;28;20457;-69
2023/02/09 08:26:38;;;;;;;72.32;32.03;;;1.40;99.90;;;;;;5088668;28;20795;-70
2023/02/09 08:29:06;;;;;;;77.53;32.17;;;1.50;99.90;;;;;;5087754;28;20040;-70
2023/02/09 08:31:31;;;;;;;76.72;31.50;;;1.50;99.90;;;;;;5089302;28;20028;-70
2023/02/09 08:33:57;;;;;;;70.38;33.17;;;1.60;99.90;;;;;;5088256;28;20766;-70
2023/02/09 08:36:23;;;;;;;69.73;31.57;;;1.80;99.90;;;;;;5089239;28;21941;-69
2023/02/09 08:38:48;;;;;;;77.73;31.50;;;1.90;99.90;;;;;;5089797;28;20071;-69
2023/02/09 08:41:16;;;;;;;72.32;31.83;;;2.00;99.90;;;;;;5089468;28;20262;-70
2023/02/09 08:43:41;;;;;;;72.97;29.52;;;2.20;99.90;;;;;;5088975;28;20043;-69
2023/02/09 08:46:10;;;;;;;77.67;33.00;;;2.40;99.90;;;;;;5088730;28;20502;-72
2023/02/09 08:48:39;;;;;;;70.22;31.65;;;2.60;99.90;;;;;;5088714;28;20332;-70
2023/02/09 08:51:06;;;;;;;76.22;31.38;;;2.70;99.90;;;;;;5088701;28;20094;-70
2023/02/09 08:53:32;;;;;;;72.60;31.63;;;2.90;99.90;;;;;;5088344;28;20545;-71
2023/02/09 08:55:58;;;;;;;74.55;31.80;;;3.00;99.90;;;;;;5087981;28;20409;-71
2023/02/09 08:58:25;;;;;;;72.60;30.75;;;3.10;99.90;;;;;;5087912;28;20111;-70
2023/02/09 09:00:55;;;;;;;61.63;28.17;;;4.00;98.50;;;;;;5088188;28;20040;-70
2023/02/09 09:03:26;;;;;;;61.08;27.20;;;5.40;97.50;;;;;;5087140;28;20031;-70
2023/02/09 09:05:58;;;;;;;53.78;27.20;;;6.70;92.60;;;;;;5089045;28;20040;-70
2023/02/09 09:08:24;;;;;;;64.18;29.30;;;5.60;94.00;;;;;;5089084;28;20028;-71
2023/02/09 09:10:50;;;;;;;61.58;30.20;;;4.70;94.10;;;;;;5088328;28;20074;-71
2023/02/09 09:13:15;;;;;;;58.47;28.37;;;4.60;95.50;;;;;;5081253;28;20028;-71
2023/02/09 09:15:41;;;;;;;66.10;30.33;;;4.50;95.60;;;;;;5089123;28;20032;-70
2023/02/09 09:18:08;;;;;;;61.25;29.38;;;4.30;97.00;;;;;;5089704;28;20107;-70
2023/02/09 09:20:37;;;;;;;66.53;28.13;;;4.30;97.10;;;;;;5089095;28;20044;-70
2023/02/09 09:23:02;;;;;;;66.68;29.65;;;4.30;96.30;;;;;;5088653;28;20088;-70
2023/02/09 09:25:28;;;;;;;59.13;29.20;;;4.20;97.10;;;;;;5088949;28;20055;-70
2023/02/09 09:27:53;;;;;;;59.40;29.57;;;4.10;96.80;;;;;;5089087;28;20031;-71
2023/02/09 09:30:19;;;;;;;55.90;27.80;;;4.10;96.50;;;;;;5088089;28;20024;-70
2023/02/09 09:32:44;;;;;;;55.77;28.17;;;4.20;96.60;;;;;;5088969;28;20051;-73
2023/02/09 09:35:10;;;;;;;68.40;30.37;;;3.90;96.80;;;;;;5089034;28;20035;-70
2023/02/09 09:37:35;;;;;;;66.33;30.57;;;3.80;97.30;;;;;;5088722;28;20040;-72
2023/02/09 09:40:01;;;;;;;57.73;29.43;;;3.80;98.80;;;;;;5088619;28;20561;-73
2023/02/09 09:42:34;;;;;;;69.15;30.83;;;3.90;98.00;;;;;;5085233;28;20032;-75
2023/02/09 09:45:02;;;;;;;61.22;29.15;;;4.10;98.40;;;;;;5084458;28;20100;-71
2023/02/09 09:47:40;;;;;;;61.85;30.67;;;4.10;97.50;;;;;;5081280;28;20024;-75
2023/02/09 09:50:13;;;;;;;64.18;30.52;;;4.30;98.10;;;;;;5081810;28;20399;-72
2023/02/09 09:52:42;;;;;;;61.40;29.48;;;4.30;97.90;;;;;;5081932;28;20028;-73
2023/02/09 09:55:18;;;;;;;69.22;32.08;;;4.30;96.90;;;;;;5081934;28;20081;-73
2023/02/09 09:57:44;;;;;;;69.37;30.27;;;4.60;97.10;;;;;;5079270;28;20028;-74
2023/02/09 10:00:24;;;;;;;77.57;33.17;;;4.70;96.80;;;;;;5085587;28;20024;-74
2023/02/09 10:02:51;;;;;;;64.93;30.13;;;4.90;97.10;;;;;;5080544;28;20051;-71
2023/02/09 10:05:23;;;;;;;61.08;29.90;;;5.00;96.60;;;;;;5085653;28;20028;-70
2023/02/09 10:08:01;;;;;;;65.60;31.80;;;4.90;96.80;;;;;;5086800;28;20450;-70
2023/02/09 10:10:37;;;;;;;59.30;30.08;;;4.80;95.30;;;;;;5078736;28;20664;-70
2023/02/09 10:13:08;;;;;;;63.60;31.38;;;4.90;95.30;;;;;;5088030;28;20031;-71
2023/02/09 10:15:37;;;;;;;72.53;32.25;;;5.20;95.40;;;;;;5087840;28;20028;-72
2023/02/09 10:18:13;;;;;;;65.30;31.67;;;5.50;95.70;;;;;;5088156;28;20817;-71
2023/02/09 10:20:48;;;;;;;63.83;30.83;;;5.90;94.80;;;;;;5086335;28;20043;-70
2023/02/09 10:23:14;;;;;;;71.70;32.10;;;6.00;93.70;;;;;;5086144;28;20071;-71
2023/02/09 10:26:01;;;;;;;66.13;33.60;;;5.90;93.80;;;;;;5086842;28;20039;-72
2023/02/09 10:28:33;;;;;;;60.58;30.92;;;6.10;95.00;;;;;;5074721;28;20703;-70
2023/02/09 10:31:02;;;;;;;62.30;29.90;;;6.00;93.00;;;;;;5087611;28;20028;-70
2023/02/09 10:33:36;;;;;;;64.05;32.92;;;6.20;93.50;;;;;;5077376;28;20145;-73
2023/02/09 10:36:05;;;;;;;82.80;38.00;;;6.20;93.00;;;;;;5084907;28;20019;-74
2023/02/09 10:38:32;;;;;;;86.60;39.60;;;6.50;94.10;;;;;;5086604;28;20028;-74
2023/02/09 10:40:59;;;;;;;83.50;38.90;;;6.70;94.30;;;;;;5087236;28;20027;-73
2023/02/09 10:43:30;;;;;;;82.50;40.78;;;6.70;94.10;;;;;;5087654;28;20036;-70
2023/02/09 10:46:18;;;;;;;83.28;37.92;;;6.50;94.30;;;;;;5085871;28;20042;-71
2023/02/09 10:48:45;;;;;;;70.70;36.88;;;6.40;94.80;;;;;;5085393;28;20048;-71
2023/02/09 10:51:27;;;;;;;76.85;36.35;;;6.40;93.70;;;;;;5086256;28;20062;-73
2023/02/09 10:53:56;;;;;;;70.18;35.55;;;6.30;94.20;;;;;;5086492;28;20045;-73
2023/02/09 10:56:25;;;;;;;75.43;39.10;;;6.10;93.90;;;;;;5085741;28;20391;-72
2023/02/09 10:59:18;;;;;;;85.50;39.55;;;6.10;94.90;;;;;;5087073;28;20028;-73
2023/02/09 11:01:56;;;;;;;93.32;42.75;;;6.40;94.70;;;;;;5069663;28;20093;-72
2023/02/09 11:04:25;;;;;;;86.55;43.92;;;6.60;94.60;;;;;;5087144;28;20482;-74
2023/02/09 11:07:03;;;;;;;81.90;41.38;;;6.80;94.40;;;;;;5084134;28;20046;-73
2023/02/09 11:09:34;;;;;;;83.03;42.28;;;6.70;93.40;;;;;;5086156;28;20035;-72
2023/02/09 11:12:00;;;;;;;82.82;40.70;;;6.90;94.00;;;;;;5082279;28;20035;-74
2023/02/09 11:14:27;;;;;;;77.20;40.05;;;7.00;93.90;;;;;;5082365;28;20029;-74
2023/02/09 11:16:58;;;;;;;;;;;7.00;93.80;;;;;;5081373;28;20455;-75
2023/02/09 11:19:49;;;;;;;79.93;40.90;;;6.90;94.70;;;;;;5080296;28;19916;-72
2023/02/09 11:22:27;;;;;;;88.80;43.10;;;6.80;94.20;;;;;;5084633;28;20027;-72
2023/02/09 11:25:17;;;;;;;79.60;39.28;;;7.10;94.20;;;;;;5083295;28;20024;-72
2023/02/09 11:28:06;;;;;;;74.70;38.20;;;7.10;93.40;;;;;;5082233;28;20051;-69
2023/02/09 11:31:14;;;;;;;75.03;38.00;;;7.20;92.10;;;;;;5086034;28;20028;-71
2023/02/09 11:33:58;;;;;;;70.40;37.13;;;7.30;93.30;;;;;;5084530;28;20048;-71
2023/02/09 11:36:49;;;;;;;79.38;36.95;;;7.40;93.40;;;;;;5083883;28;20043;-71
2023/02/09 11:40:12;;;;;;;79.32;37.13;;;7.40;92.70;;;;;;5084738;28;20089;-73
2023/02/09 11:42:45;;;;;;;59.38;30.42;;;7.40;92.60;;;;;;5038150;28;20119;-71
2023/02/09 11:45:28;;;;;;;73.63;37.88;;;7.30;92.00;;;;;;5083934;28;20115;-71
2023/02/09 11:48:35;;;;;;;73.45;37.92;;;7.20;93.10;;;;;;5085834;28;20036;-71
2023/02/09 11:51:13;;;;;;;70.28;38.45;;;6.90;94.00;;;;;;5060770;28;20055;-72
2023/02/09 11:53:50;;;;;;;78.47;37.60;;;6.80;94.80;;;;;;5082587;28;20093;-70
2023/02/09 11:56:27;;;;;;;71.25;37.55;;;6.80;95.20;;;;;;5081988;28;20027;-70
2023/02/09 11:58:57;;;;;;;75.00;39.45;;;7.00;94.70;;;;;;5085932;28;20398;-70
2023/02/09 12:01:44;;;;;;;76.30;37.00;;;7.10;95.00;;;;;;5076841;28;20078;-70
2023/02/09 12:04:41;;;;;;;69.60;32.53;;;7.10;94.40;;;;;;5082726;28;20042;-70
2023/02/09 12:07:30;;;;;;;62.55;31.92;;;7.00;93.80;;;;;;5085274;28;20040;-69
2023/02/09 12:10:01;;;;;;;54.33;29.98;;;7.10;93.80;;;;;;5085457;28;20072;-70
2023/02/09 12:12:40;;;;;;;60.20;32.05;;;7.00;92.30;;;;;;5080752;28;20031;-72
2023/02/09 12:15:18;;;;;;;46.38;21.02;;;7.10;93.30;;;;;;5080177;28;20081;-71
2023/02/09 12:18:13;;;;;;;35.65;19.27;;;7.00;90.50;;;;;;5085019;28;20054;-71
2023/02/09 12:20:39;;;;;;;37.33;19.13;;;7.20;90.60;;;;;;5084481;28;20044;-71
2023/02/09 12:23:25;;;;;;;32.97;17.38;;;7.40;89.40;;;;;;5084444;28;20028;-72
2023/02/09 12:26:09;;;;;;;41.85;18.75;;;7.50;90.40;;;;;;5083971;28;20458;-71
2023/02/09 12:28:38;;;;;;;41.38;20.38;;;7.50;86.80;;;;;;5085247;28;20040;-71
2023/02/09 12:31:08;;;;;;;34.53;18.48;;;7.60;90.60;;;;;;5080338;28;20024;-71
2023/02/09 12:33:37;;;;;;;36.88;19.83;;;7.80;90.50;;;;;;5077005;28;20033;-70
2023/02/09 12:36:09;;;;;;;39.33;20.27;;;7.90;88.80;;;;;;5084410;28;20085;-71
2023/02/09 12:38:54;;;;;;;33.20;17.33;;;7.90;87.80;;;;;;5078129;28;20153;-71
2023/02/09 12:41:30;;;;;;;32.15;15.43;;;8.10;85.80;;;;;;5086426;28;20028;-72
2023/02/09 12:44:22;;;;;;;28.50;14.68;;;8.10;84.10;;;;;;5084704;28;20036;-71
2023/02/09 12:46:53;;;;;;;19.42;11.07;;;8.10;84.30;;;;;;5060589;28;20044;-72
2023/02/09 12:49:28;;;;;;;26.08;11.05;;;8.10;82.30;;;;;;5076175;28;20028;-71
2023/02/09 12:52:12;;;;;;;18.83;10.60;;;8.00;85.50;;;;;;5095394;28;20031;-71
2023/02/09 12:54:55;;;;;;;20.77;10.50;;;8.00;82.70;;;;;;5093107;28;20036;-72
2023/02/09 12:57:21;;;;;;;18.27;8.98;;;7.90;80.90;;;;;;5086114;28;20074;-71